»·PEaware :: UAL465 KLAS-KSAN

UAL465 :: KLAS-KSAN

FLIGHT INFORMATION

Flight Status: Arrived
Operator:
United Airlines
More flights by this operator :: More flights under this callsign
Pilot: Matt G. (13672)
Aircraft: BOEING 737-300
(B733)
More flights by this aircraft type
Origin: KLAS McCarran Intl
United States
Destination: KSAN San Diego Intl-Lindbergh
United States
More flights between these airports :: More routes between these airports
Route: +BOACH8 LVELL LUCKI1
File this flight plan on PilotEdge
Remarks:
Altitude:
(Current/Filed)
25,000ft
Speed:
(Current/Filed)
416kts
Departed: 18-Nov-17 04:32 PM
Arrived: 18-Nov-17 05:17 PM
Distance/Time
Traveled:
225nm/0:45
Distance/Time
To Go:
Arrived

Flight Plot

Page will automatically refresh every two minutes.

Flight plan parsing failed; only flown route is shown


Map Options




Map Legend


Flown Route
Filed Route
Departure Airport
Arrival Airport
Navaid (VOR, NDB)
Fix

Horizontal Profiles

Position Reports

Time Latitude Longitude Heading Altitude Ground
Speed
18-Nov-17 16:15 36.082197 -115.140002 41 2118ft 0kts
18-Nov-17 16:16 36.082197 -115.140002 41 2118ft 0kts
18-Nov-17 16:17 36.082197 -115.140002 41 2118ft 0kts
18-Nov-17 16:18 36.082197 -115.140002 41 2118ft 0kts
18-Nov-17 16:19 36.082197 -115.140002 41 2118ft 0kts
18-Nov-17 16:20 36.082197 -115.140002 41 2118ft 0kts
18-Nov-17 16:21 36.082197 -115.140002 41 2118ft 0kts
18-Nov-17 16:22 36.082197 -115.140002 41 2118ft 0kts
18-Nov-17 16:23 36.082197 -115.140002 41 2118ft 0kts
18-Nov-17 16:24 36.082197 -115.140002 41 2118ft 0kts
18-Nov-17 16:25 36.082197 -115.140002 41 2118ft 0kts
18-Nov-17 16:26 36.082179 -115.140018 44 2118ft 0kts
18-Nov-17 16:27 36.081805 -115.140484 43 2118ft 2kts
18-Nov-17 16:28 36.081666 -115.141001 95 2118ft 2kts
18-Nov-17 16:29 36.082008 -115.141553 161 2118ft 2kts
18-Nov-17 16:30 36.082215 -115.141587 183 2118ft 0kts
18-Nov-17 16:31 36.081928 -115.141594 180 2118ft 8kts
18-Nov-17 16:32 36.077540 -115.140115 89 2118ft 23kts
18-Nov-17 16:33 36.077545 -115.131391 89 2118ft 27kts
18-Nov-17 16:34 36.077542 -115.121895 94 2118ft 20kts
18-Nov-17 16:35 36.077454 -115.121540 123 2118ft 0kts
18-Nov-17 16:36 36.076438 -115.122681 270 2118ft 20kts
18-Nov-17 16:37 36.076706 -115.164060 272 2771ft 167kts
18-Nov-17 16:38 36.073970 -115.238178 245 3896ft 261kts
18-Nov-17 16:39 36.011169 -115.282716 201 6721ft 279kts
18-Nov-17 16:40 35.935619 -115.305858 185 8004ft 287kts
18-Nov-17 16:41 35.855434 -115.314604 178 10356ft 317kts
18-Nov-17 16:42 35.762205 -115.304183 175 12527ft 351kts
18-Nov-17 16:43 35.663113 -115.294907 183 15063ft 366kts
18-Nov-17 16:44 35.560282 -115.299189 184 17427ft 381kts
18-Nov-17 16:45 35.452912 -115.303571 184 19619ft 394kts
18-Nov-17 16:46 35.344805 -115.307832 185 21586ft 406kts
18-Nov-17 16:47 35.230636 -115.312316 185 23419ft 418kts
18-Nov-17 16:48 35.112975 -115.316922 185 24257ft 427kts
18-Nov-17 16:49 34.994537 -115.321540 186 24201ft 428kts
18-Nov-17 16:50 34.874225 -115.326232 187 24173ft 442kts
18-Nov-17 16:51 34.753461 -115.340290 207 24232ft 426kts
18-Nov-17 16:52 34.643069 -115.391207 206 24231ft 426kts
18-Nov-17 16:53 34.532077 -115.439782 206 24290ft 426kts
18-Nov-17 16:54 34.420814 -115.488271 206 24294ft 426kts
18-Nov-17 16:55 34.310738 -115.539394 217 24292ft 417kts
18-Nov-17 16:56 34.212023 -115.613400 215 24292ft 420kts
18-Nov-17 16:57 34.102645 -115.665922 207 24287ft 428kts
18-Nov-17 16:58 33.991924 -115.718192 207 24222ft 429kts
18-Nov-17 16:59 33.881760 -115.770753 207 24084ft 429kts
18-Nov-17 17:00 33.771620 -115.824621 207 24121ft 429kts
18-Nov-17 17:01 33.660598 -115.876645 207 24120ft 429kts
18-Nov-17 17:02 33.549665 -115.928424 207 24120ft 429kts
18-Nov-17 17:03 33.479269 -115.999393 245 24121ft 401kts
18-Nov-17 17:04 33.407525 -116.129846 240 23768ft 397kts
18-Nov-17 17:05 33.345297 -116.236336 235 21396ft 384kts
18-Nov-17 17:06 33.269113 -116.290589 209 19407ft 394kts
18-Nov-17 17:07 33.154830 -116.357006 208 16466ft 389kts
18-Nov-17 17:08 33.074770 -116.403774 207 14477ft 381kts
18-Nov-17 17:09 32.986156 -116.463170 222 12797ft 345kts
18-Nov-17 17:10 32.909137 -116.541515 222 12015ft 267kts
18-Nov-17 17:11 32.861204 -116.589721 222 10795ft 306kts
18-Nov-17 17:12 32.800004 -116.651205 221 9335ft 275kts
18-Nov-17 17:13 32.748716 -116.731068 242 7627ft 265kts
18-Nov-17 17:14 32.719262 -116.793276 241 6463ft 255kts
18-Nov-17 17:15 32.691696 -116.868536 250 5172ft 244kts
18-Nov-17 17:16 32.674200 -116.939895 272 4072ft 212kts
18-Nov-17 17:17 32.686409 -116.999789 289 3638ft 167kts
18-Nov-17 17:18 32.698867 -117.047061 287 2496ft 136kts
18-Nov-17 17:19 32.709024 -117.089469 288 1899ft 133kts
18-Nov-17 17:20 32.719370 -117.132119 287 1021ft 133kts
18-Nov-17 17:21 32.729491 -117.173168 288 253ft 126kts
18-Nov-17 17:22 32.734087 -117.195509 254 20ft 0kts
18-Nov-17 17:23 32.734087 -117.195508 254 20ft 0kts
18-Nov-17 17:24 32.734808 -117.199053 286 19ft 20kts

Navigation Log

Ident Type
Flight plan parsing failed, navigation log unavailable